sensor_id;sensor_type;location;lat;lon;timestamp;pressure;altitude;pressure_sealevel;temperature;humidity
68226;BME280;55045;49.410;11.030;2023-06-19T00:01:34;97600.91;;;20.30;78.04
68226;BME280;55045;49.410;11.030;2023-06-19T00:04:38;97598.69;;;20.08;78.97
68226;BME280;55045;49.410;11.030;2023-06-19T00:07:42;97594.97;;;20.28;75.57
68226;BME280;55045;49.410;11.030;2023-06-19T00:10:45;97606.09;;;20.22;75.37
68226;BME280;55045;49.410;11.030;2023-06-19T00:13:49;97600.81;;;20.22;75.55
68226;BME280;55045;49.410;11.030;2023-06-19T00:16:52;97603.28;;;20.33;76.04
68226;BME280;55045;49.410;11.030;2023-06-19T00:19:56;97599.75;;;20.15;79.91
68226;BME280;55045;49.410;11.030;2023-06-19T00:23:00;97595.81;;;20.29;78.18
68226;BME280;55045;49.410;11.030;2023-06-19T00:26:04;97598.75;;;19.89;77.63
68226;BME280;55045;49.410;11.030;2023-06-19T00:29:08;97598.31;;;20.03;78.78
68226;BME280;55045;49.410;11.030;2023-06-19T00:32:11;97589.22;;;20.15;79.85
68226;BME280;55045;49.410;11.030;2023-06-19T00:35:16;97591.91;;;19.68;80.62
68226;BME280;55045;49.410;11.030;2023-06-19T00:38:23;97601.75;;;20.03;79.22
68226;BME280;55045;49.410;11.030;2023-06-19T00:41:27;97593.72;;;20.05;81.31
68226;BME280;55045;49.410;11.030;2023-06-19T00:44:32;97595.44;;;19.87;80.57
68226;BME280;55045;49.410;11.030;2023-06-19T00:47:36;97603.28;;;19.59;81.75
68226;BME280;55045;49.410;11.030;2023-06-19T00:50:39;97607.69;;;19.68;80.47
68226;BME280;55045;49.410;11.030;2023-06-19T00:53:43;97597.34;;;19.47;81.70
68226;BME280;55045;49.410;11.030;2023-06-19T00:56:47;97604.31;;;19.85;80.85
68226;BME280;55045;49.410;11.030;2023-06-19T00:59:52;97605.25;;;19.38;81.98
68226;BME280;55045;49.410;11.030;2023-06-19T01:02:55;97602.31;;;19.41;81.86
68226;BME280;55045;49.410;11.030;2023-06-19T01:05:59;97604.16;;;19.31;81.87
68226;BME280;55045;49.410;11.030;2023-06-19T01:09:08;97601.50;;;19.60;82.74
68226;BME280;55045;49.410;11.030;2023-06-19T01:12:19;97561.19;;;18.93;82.57
68226;BME280;55045;49.410;11.030;2023-06-19T01:15:23;97588.66;;;19.18;82.56
68226;BME280;55045;49.410;11.030;2023-06-19T01:18:26;97591.28;;;19.27;83.87
68226;BME280;55045;49.410;11.030;2023-06-19T01:21:30;97569.59;;;18.96;83.03
68226;BME280;55045;49.410;11.030;2023-06-19T01:24:35;97594.75;;;19.18;82.15
68226;BME280;55045;49.410;11.030;2023-06-19T01:27:40;97596.97;;;19.33;82.28
68226;BME280;55045;49.410;11.030;2023-06-19T01:30:44;97591.72;;;19.33;83.25
68226;BME280;55045;49.410;11.030;2023-06-19T01:33:50;97590.59;;;19.25;84.28
68226;BME280;55045;49.410;11.030;2023-06-19T01:36:55;97587.84;;;19.27;84.77
68226;BME280;55045;49.410;11.030;2023-06-19T01:40:02;97583.72;;;19.15;82.69
68226;BME280;55045;49.410;11.030;2023-06-19T01:43:08;97581.06;;;19.15;83.03
68226;BME280;55045;49.410;11.030;2023-06-19T01:46:11;97587.84;;;18.69;85.81
68226;BME280;55045;49.410;11.030;2023-06-19T01:49:15;97594.84;;;18.59;87.91
68226;BME280;55045;49.410;11.030;2023-06-19T01:52:20;97587.75;;;18.80;85.85
68226;BME280;55045;49.410;11.030;2023-06-19T01:55:26;97586.16;;;18.58;87.03
68226;BME280;55045;49.410;11.030;2023-06-19T01:58:32;97594.19;;;18.57;88.34
68226;BME280;55045;49.410;11.030;2023-06-19T02:01:35;97595.00;;;18.57;89.67
68226;BME280;55045;49.410;11.030;2023-06-19T02:04:38;97599.25;;;18.29;91.25
68226;BME280;55045;49.410;11.030;2023-06-19T02:07:41;97590.56;;;18.48;92.53
68226;BME280;55045;49.410;11.030;2023-06-19T02:10:46;97597.44;;;18.20;92.30
68226;BME280;55045;49.410;11.030;2023-06-19T02:13:49;97607.09;;;18.20;93.02
68226;BME280;55045;49.410;11.030;2023-06-19T02:16:53;97603.06;;;18.16;93.79
68226;BME280;55045;49.410;11.030;2023-06-19T02:19:56;97603.16;;;18.45;89.76
68226;BME280;55045;49.410;11.030;2023-06-19T02:22:59;97608.69;;;18.41;89.56
68226;BME280;55045;49.410;11.030;2023-06-19T02:26:05;97603.00;;;18.46;88.90
68226;BME280;55045;49.410;11.030;2023-06-19T02:29:09;97600.59;;;18.74;89.27
68226;BME280;55045;49.410;11.030;2023-06-19T02:32:12;97599.88;;;18.12;90.46
68226;BME280;55045;49.410;11.030;2023-06-19T02:35:15;97596.19;;;18.24;90.76
68226;BME280;55045;49.410;11.030;2023-06-19T02:38:19;97592.31;;;18.19;90.05
68226;BME280;55045;49.410;11.030;2023-06-19T02:41:24;97591.53;;;18.47;90.22
68226;BME280;55045;49.410;11.030;2023-06-19T02:44:28;97589.91;;;18.56;89.27
68226;BME280;55045;49.410;11.030;2023-06-19T02:47:31;97563.91;;;18.43;89.34
68226;BME280;55045;49.410;11.030;2023-06-19T02:50:34;97596.94;;;18.46;90.61
68226;BME280;55045;49.410;11.030;2023-06-19T02:53:38;97597.41;;;18.80;90.25
68226;BME280;55045;49.410;11.030;2023-06-19T02:56:42;97601.66;;;18.52;91.18
68226;BME280;55045;49.410;11.030;2023-06-19T02:59:45;97603.97;;;18.45;89.92
68226;BME280;55045;49.410;11.030;2023-06-19T03:02:49;97603.22;;;18.83;89.75
68226;BME280;55045;49.410;11.030;2023-06-19T03:05:53;97605.84;;;18.74;87.96
68226;BME280;55045;49.410;11.030;2023-06-19T03:08:58;97606.13;;;18.70;87.85
68226;BME280;55045;49.410;11.030;2023-06-19T03:12:03;97609.00;;;18.67;87.65
68226;BME280;55045;49.410;11.030;2023-06-19T03:15:08;97612.06;;;18.73;87.67
68226;BME280;55045;49.410;11.030;2023-06-19T03:18:15;97615.38;;;18.65;88.08
68226;BME280;55045;49.410;11.030;2023-06-19T03:21:18;97615.47;;;18.63;89.25
68226;BME280;55045;49.410;11.030;2023-06-19T03:24:24;97622.00;;;18.69;88.35
68226;BME280;55045;49.410;11.030;2023-06-19T03:27:33;97634.06;;;18.81;88.75
68226;BME280;55045;49.410;11.030;2023-06-19T03:34:14;97652.38;;;18.62;90.87
68226;BME280;55045;49.410;11.030;2023-06-19T03:37:18;97655.53;;;18.46;92.90
68226;BME280;55045;49.410;11.030;2023-06-19T03:40:23;97664.94;;;18.18;93.80
68226;BME280;55045;49.410;11.030;2023-06-19T03:43:27;97666.56;;;18.40;93.21
68226;BME280;55045;49.410;11.030;2023-06-19T03:46:30;97676.78;;;18.33;94.25
68226;BME280;55045;49.410;11.030;2023-06-19T03:49:34;97680.91;;;18.36;93.91
68226;BME280;55045;49.410;11.030;2023-06-19T03:52:38;97706.66;;;18.11;97.25
68226;BME280;55045;49.410;11.030;2023-06-19T03:55:43;97703.94;;;18.23;96.05
68226;BME280;55045;49.410;11.030;2023-06-19T03:58:47;97708.75;;;18.18;98.05
68226;BME280;55045;49.410;11.030;2023-06-19T04:01:50;97706.31;;;18.26;97.87
68226;BME280;55045;49.410;11.030;2023-06-19T04:04:55;97706.25;;;18.16;98.82
68226;BME280;55045;49.410;11.030;2023-06-19T04:07:58;97714.81;;;18.18;99.20
68226;BME280;55045;49.410;11.030;2023-06-19T04:11:01;97703.09;;;18.53;99.13
68226;BME280;55045;49.410;11.030;2023-06-19T04:14:05;97690.44;;;18.67;100.00
68226;BME280;55045;49.410;11.030;2023-06-19T04:17:08;97702.06;;;18.04;100.00
68226;BME280;55045;49.410;11.030;2023-06-19T04:20:13;97700.88;;;18.18;100.00
68226;BME280;55045;49.410;11.030;2023-06-19T04:23:16;97704.31;;;18.18;100.00
68226;BME280;55045;49.410;11.030;2023-06-19T04:26:19;97697.25;;;18.39;100.00
68226;BME280;55045;49.410;11.030;2023-06-19T04:29:23;97713.56;;;18.43;100.00
68226;BME280;55045;49.410;11.030;2023-06-19T04:32:27;97709.38;;;18.31;100.00
68226;BME280;55045;49.410;11.030;2023-06-19T04:35:32;97703.44;;;18.69;100.00
68226;BME280;55045;49.410;11.030;2023-06-19T04:38:42;97711.53;;;18.56;100.00
68226;BME280;55045;49.410;11.030;2023-06-19T04:41:46;97703.25;;;19.01;100.00
68226;BME280;55045;49.410;11.030;2023-06-19T04:44:49;97697.97;;;18.91;100.00
68226;BME280;55045;49.410;11.030;2023-06-19T04:47:52;97718.56;;;18.96;100.00
68226;BME280;55045;49.410;11.030;2023-06-19T04:50:57;97719.78;;;18.82;100.00
68226;BME280;55045;49.410;11.030;2023-06-19T04:54:03;97720.41;;;19.24;100.00
68226;BME280;55045;49.410;11.030;2023-06-19T04:57:06;97716.66;;;19.17;100.00
68226;BME280;55045;49.410;11.030;2023-06-19T05:00:11;97722.88;;;19.16;100.00
68226;BME280;55045;49.410;11.030;2023-06-19T05:03:14;97720.25;;;19.36;100.00
68226;BME280;55045;49.410;11.030;2023-06-19T05:06:20;97714.56;;;19.50;100.00
68226;BME280;55045;49.410;11.030;2023-06-19T05:09:23;97720.44;;;19.63;100.00
68226;BME280;55045;49.410;11.030;2023-06-19T05:12:27;97724.16;;;19.61;100.00
68226;BME280;55045;49.410;11.030;2023-06-19T05:15:30;97723.16;;;19.81;100.00
68226;BME280;55045;49.410;11.030;2023-06-19T05:18:33;97740.34;;;19.66;100.00
68226;BME280;55045;49.410;11.030;2023-06-19T05:21:38;97740.22;;;19.77;100.00
68226;BME280;55045;49.410;11.030;2023-06-19T05:24:41;97730.66;;;19.66;100.00
68226;BME280;55045;49.410;11.030;2023-06-19T05:27:44;97727.72;;;19.79;100.00
68226;BME280;55045;49.410;11.030;2023-06-19T05:30:47;97734.63;;;19.99;100.00
68226;BME280;55045;49.410;11.030;2023-06-19T05:33:52;97736.28;;;20.00;100.00
68226;BME280;55045;49.410;11.030;2023-06-19T05:36:57;97738.47;;;20.14;100.00
68226;BME280;55045;49.410;11.030;2023-06-19T05:40:03;97748.84;;;20.16;100.00
68226;BME280;55045;49.410;11.030;2023-06-19T05:43:07;97746.53;;;20.03;100.00
68226;BME280;55045;49.410;11.030;2023-06-19T05:46:10;97745.97;;;20.09;100.00
68226;BME280;55045;49.410;11.030;2023-06-19T05:49:14;97753.09;;;20.36;100.00
68226;BME280;55045;49.410;11.030;2023-06-19T05:52:18;97758.56;;;20.90;99.28
68226;BME280;55045;49.410;11.030;2023-06-19T05:55:22;97770.97;;;21.07;96.60
68226;BME280;55045;49.410;11.030;2023-06-19T05:58:27;97769.13;;;21.35;97.14
68226;BME280;55045;49.410;11.030;2023-06-19T06:01:30;97777.34;;;21.32;98.17
68226;BME280;55045;49.410;11.030;2023-06-19T06:04:34;97773.84;;;20.86;100.00
68226;BME280;55045;49.410;11.030;2023-06-19T06:07:39;97784.09;;;20.89;100.00
68226;BME280;55045;49.410;11.030;2023-06-19T06:10:43;97797.53;;;21.14;100.00
68226;BME280;55045;49.410;11.030;2023-06-19T06:13:46;97799.09;;;20.89;100.00
68226;BME280;55045;49.410;11.030;2023-06-19T06:16:49;97793.38;;;20.66;100.00
68226;BME280;55045;49.410;11.030;2023-06-19T06:19:53;97793.56;;;20.82;100.00
68226;BME280;55045;49.410;11.030;2023-06-19T06:22:57;97787.56;;;20.53;100.00
68226;BME280;55045;49.410;11.030;2023-06-19T06:26:00;97796.97;;;20.92;100.00
68226;BME280;55045;49.410;11.030;2023-06-19T06:29:05;97797.22;;;20.71;100.00
68226;BME280;55045;49.410;11.030;2023-06-19T06:32:09;97806.09;;;20.70;100.00
68226;BME280;55045;49.410;11.030;2023-06-19T06:35:12;97804.09;;;20.82;100.00
68226;BME280;55045;49.410;11.030;2023-06-19T06:38:17;97814.75;;;21.18;100.00
68226;BME280;55045;49.410;11.030;2023-06-19T06:41:20;97812.34;;;21.24;100.00
68226;BME280;55045;49.410;11.030;2023-06-19T06:44:23;97825.00;;;21.21;100.00
68226;BME280;55045;49.410;11.030;2023-06-19T06:47:26;97829.75;;;21.17;100.00
68226;BME280;55045;49.410;11.030;2023-06-19T06:50:29;97822.38;;;21.66;100.00
68226;BME280;55045;49.410;11.030;2023-06-19T06:53:35;97822.44;;;21.92;100.00
68226;BME280;55045;49.410;11.030;2023-06-19T06:56:38;97829.81;;;22.24;100.00
68226;BME280;55045;49.410;11.030;2023-06-19T06:59:41;97831.19;;;22.10;100.00
68226;BME280;55045;49.410;11.030;2023-06-19T07:02:45;97827.66;;;22.20;100.00
68226;BME280;55045;49.410;11.030;2023-06-19T07:05:50;97823.78;;;22.14;100.00
68226;BME280;55045;49.410;11.030;2023-06-19T07:08:55;97821.22;;;22.04;100.00
68226;BME280;55045;49.410;11.030;2023-06-19T07:11:59;97827.78;;;22.00;100.00
68226;BME280;55045;49.410;11.030;2023-06-19T07:15:04;97832.38;;;22.16;100.00
68226;BME280;55045;49.410;11.030;2023-06-19T07:18:07;97840.50;;;22.40;100.00
68226;BME280;55045;49.410;11.030;2023-06-19T07:21:12;97835.66;;;22.36;100.00
68226;BME280;55045;49.410;11.030;2023-06-19T07:24:16;97843.69;;;22.26;100.00
68226;BME280;55045;49.410;11.030;2023-06-19T07:27:20;97844.41;;;22.36;100.00
68226;BME280;55045;49.410;11.030;2023-06-19T07:30:23;97844.22;;;22.30;100.00
68226;BME280;55045;49.410;11.030;2023-06-19T07:33:28;97847.28;;;22.43;100.00
68226;BME280;55045;49.410;11.030;2023-06-19T07:36:31;97848.94;;;22.44;100.00
68226;BME280;55045;49.410;11.030;2023-06-19T07:39:36;97796.94;;;22.19;100.00
68226;BME280;55045;49.410;11.030;2023-06-19T07:42:39;97853.34;;;22.87;100.00
68226;BME280;55045;49.410;11.030;2023-06-19T07:45:45;97860.06;;;23.08;100.00
68226;BME280;55045;49.410;11.030;2023-06-19T07:48:48;97850.66;;;22.53;100.00
68226;BME280;55045;49.410;11.030;2023-06-19T07:51:51;97847.31;;;23.03;100.00
68226;BME280;55045;49.410;11.030;2023-06-19T07:54:57;97855.47;;;23.18;100.00
68226;BME280;55045;49.410;11.030;2023-06-19T07:58:01;97855.88;;;22.97;100.00
68226;BME280;55045;49.410;11.030;2023-06-19T08:01:04;97863.53;;;23.08;100.00
68226;BME280;55045;49.410;11.030;2023-06-19T08:04:07;97873.28;;;23.50;99.85
68226;BME280;55045;49.410;11.030;2023-06-19T08:07:11;97870.72;;;23.66;99.51
68226;BME280;55045;49.410;11.030;2023-06-19T08:10:15;97875.09;;;23.49;98.88
68226;BME280;55045;49.410;11.030;2023-06-19T08:13:19;97876.25;;;23.47;99.55
68226;BME280;55045;49.410;11.030;2023-06-19T08:16:24;97887.13;;;23.36;99.58
68226;BME280;55045;49.410;11.030;2023-06-19T08:19:27;97885.44;;;23.26;99.11
68226;BME280;55045;49.410;11.030;2023-06-19T08:22:31;97889.31;;;23.40;98.58
68226;BME280;55045;49.410;11.030;2023-06-19T08:25:35;97882.97;;;23.67;98.80
68226;BME280;55045;49.410;11.030;2023-06-19T08:28:39;97872.56;;;23.82;97.56
68226;BME280;55045;49.410;11.030;2023-06-19T08:31:44;97879.28;;;23.60;99.60
68226;BME280;55045;49.410;11.030;2023-06-19T08:34:47;97878.31;;;23.69;98.32
68226;BME280;55045;49.410;11.030;2023-06-19T08:37:50;97878.06;;;24.13;97.21
68226;BME280;55045;49.410;11.030;2023-06-19T08:40:55;97875.41;;;24.05;96.52
68226;BME280;55045;49.410;11.030;2023-06-19T08:43:58;97876.56;;;24.19;98.99
68226;BME280;55045;49.410;11.030;2023-06-19T08:47:01;97880.69;;;23.89;96.64
68226;BME280;55045;49.410;11.030;2023-06-19T08:50:06;97886.34;;;24.02;96.50
68226;BME280;55045;49.410;11.030;2023-06-19T08:53:09;97878.59;;;24.33;97.53
68226;BME280;55045;49.410;11.030;2023-06-19T08:56:13;97876.41;;;24.12;97.39
68226;BME280;55045;49.410;11.030;2023-06-19T08:59:17;97836.31;;;23.74;97.43
68226;BME280;55045;49.410;11.030;2023-06-19T09:02:20;97883.00;;;24.00;98.22
68226;BME280;55045;49.410;11.030;2023-06-19T09:05:24;97876.78;;;24.33;98.01
68226;BME280;55045;49.410;11.030;2023-06-19T09:08:29;97876.09;;;24.31;98.33
68226;BME280;55045;49.410;11.030;2023-06-19T09:11:34;97878.91;;;24.46;95.63
68226;BME280;55045;49.410;11.030;2023-06-19T09:14:38;97854.34;;;23.63;96.96
68226;BME280;55045;49.410;11.030;2023-06-19T09:17:46;97876.59;;;24.35;97.12
68226;BME280;55045;49.410;11.030;2023-06-19T09:20:53;97881.03;;;24.67;95.45
68226;BME280;55045;49.410;11.030;2023-06-19T09:24:02;97865.31;;;24.57;93.47
68226;BME280;55045;49.410;11.030;2023-06-19T09:27:09;97868.59;;;25.31;91.67
68226;BME280;55045;49.410;11.030;2023-06-19T09:34:28;97865.09;;;25.93;88.77
68226;BME280;55045;49.410;11.030;2023-06-19T09:37:31;97860.56;;;26.01;89.06
68226;BME280;55045;49.410;11.030;2023-06-19T09:40:37;97867.44;;;26.33;86.15
68226;BME280;55045;49.410;11.030;2023-06-19T09:43:42;97858.31;;;25.90;88.17
68226;BME280;55045;49.410;11.030;2023-06-19T09:46:48;97863.28;;;26.16;85.92
68226;BME280;55045;49.410;11.030;2023-06-19T09:49:55;97857.84;;;26.09;87.47
68226;BME280;55045;49.410;11.030;2023-06-19T09:52:58;97860.69;;;26.68;84.93
68226;BME280;55045;49.410;11.030;2023-06-19T09:56:06;97858.44;;;26.42;85.45
68226;BME280;55045;49.410;11.030;2023-06-19T09:59:10;97851.41;;;26.94;84.63
68226;BME280;55045;49.410;11.030;2023-06-19T10:02:16;97851.22;;;26.28;86.65
68226;BME280;55045;49.410;11.030;2023-06-19T10:05:29;97853.56;;;26.46;85.97
68226;BME280;55045;49.410;11.030;2023-06-19T10:08:39;97858.19;;;26.29;87.34
68226;BME280;55045;49.410;11.030;2023-06-19T10:11:49;97852.03;;;26.66;85.95
68226;BME280;55045;49.410;11.030;2023-06-19T10:14:54;97849.44;;;26.21;87.45
68226;BME280;55045;49.410;11.030;2023-06-19T10:18:00;97853.53;;;26.08;88.07
68226;BME280;55045;49.410;11.030;2023-06-19T10:21:15;97850.72;;;26.25;86.76
68226;BME280;55045;49.410;11.030;2023-06-19T10:24:20;97854.47;;;27.20;83.97
68226;BME280;55045;49.410;11.030;2023-06-19T10:27:24;97818.69;;;26.03;86.11
68226;BME280;55045;49.410;11.030;2023-06-19T10:30:28;97839.41;;;26.68;84.46
68226;BME280;55045;49.410;11.030;2023-06-19T10:33:34;97842.34;;;25.98;86.83
68226;BME280;55045;49.410;11.030;2023-06-19T10:36:44;97831.13;;;26.26;87.66
68226;BME280;55045;49.410;11.030;2023-06-19T10:39:47;97831.66;;;26.44;86.53
68226;BME280;55045;49.410;11.030;2023-06-19T10:42:50;97827.91;;;26.53;87.02
68226;BME280;55045;49.410;11.030;2023-06-19T10:45:54;97833.84;;;26.55;85.39
68226;BME280;55045;49.410;11.030;2023-06-19T10:48:58;97816.94;;;26.33;85.59
68226;BME280;55045;49.410;11.030;2023-06-19T10:52:06;97817.75;;;26.34;84.64
68226;BME280;55045;49.410;11.030;2023-06-19T10:55:10;97816.25;;;26.54;83.55
68226;BME280;55045;49.410;11.030;2023-06-19T10:58:14;97816.69;;;26.43;84.32
68226;BME280;55045;49.410;11.030;2023-06-19T11:01:18;97816.72;;;26.73;83.74
68226;BME280;55045;49.410;11.030;2023-06-19T11:04:21;97820.19;;;26.44;84.39
68226;BME280;55045;49.410;11.030;2023-06-19T11:07:28;97817.56;;;26.88;84.23
68226;BME280;55045;49.410;11.030;2023-06-19T11:10:32;97821.78;;;26.67;82.72
68226;BME280;55045;49.410;11.030;2023-06-19T11:13:35;97811.50;;;26.64;81.93
68226;BME280;55045;49.410;11.030;2023-06-19T11:16:40;97806.38;;;26.48;81.92
68226;BME280;55045;49.410;11.030;2023-06-19T11:19:44;97814.97;;;26.94;82.58
68226;BME280;55045;49.410;11.030;2023-06-19T11:22:54;97800.06;;;27.08;81.11
68226;BME280;55045;49.410;11.030;2023-06-19T11:26:02;97803.88;;;26.91;80.82
68226;BME280;55045;49.410;11.030;2023-06-19T11:29:14;97813.13;;;27.39;80.90
68226;BME280;55045;49.410;11.030;2023-06-19T11:32:18;97811.84;;;27.56;78.84
68226;BME280;55045;49.410;11.030;2023-06-19T11:35:32;97797.09;;;26.74;80.41
68226;BME280;55045;49.410;11.030;2023-06-19T11:38:39;97799.19;;;26.93;81.22
68226;BME280;55045;49.410;11.030;2023-06-19T11:41:44;97766.22;;;27.81;78.06
68226;BME280;55045;49.410;11.030;2023-06-19T11:44:53;97794.16;;;26.98;81.16
68226;BME280;55045;49.410;11.030;2023-06-19T11:47:58;97789.56;;;26.62;81.76
68226;BME280;55045;49.410;11.030;2023-06-19T11:51:01;97779.34;;;28.04;78.37
68226;BME280;55045;49.410;11.030;2023-06-19T11:54:08;97784.16;;;26.85;80.43
68226;BME280;55045;49.410;11.030;2023-06-19T11:57:12;97770.91;;;27.21;79.42
68226;BME280;55045;49.410;11.030;2023-06-19T12:00:16;97772.50;;;28.23;78.05
68226;BME280;55045;49.410;11.030;2023-06-19T12:03:20;97767.19;;;27.37;78.21
68226;BME280;55045;49.410;11.030;2023-06-19T12:06:23;97765.69;;;27.13;79.11
68226;BME280;55045;49.410;11.030;2023-06-19T12:09:27;97756.13;;;27.76;78.17
68226;BME280;55045;49.410;11.030;2023-06-19T12:12:31;97758.75;;;27.98;77.18
68226;BME280;55045;49.410;11.030;2023-06-19T12:15:34;97757.28;;;27.10;76.54
68226;BME280;55045;49.410;11.030;2023-06-19T12:18:39;97752.38;;;27.28;78.28
68226;BME280;55045;49.410;11.030;2023-06-19T12:21:42;97756.53;;;27.59;77.92
68226;BME280;55045;49.410;11.030;2023-06-19T12:24:47;97756.09;;;27.55;76.60
68226;BME280;55045;49.410;11.030;2023-06-19T12:27:50;97742.28;;;27.88;75.45
68226;BME280;55045;49.410;11.030;2023-06-19T12:30:56;97749.47;;;28.15;73.71
68226;BME280;55045;49.410;11.030;2023-06-19T12:34:01;97748.88;;;28.41;74.00
68226;BME280;55045;49.410;11.030;2023-06-19T12:37:24;97748.72;;;28.90;74.57
68226;BME280;55045;49.410;11.030;2023-06-19T12:40:29;97746.91;;;28.28;72.99
68226;BME280;55045;49.410;11.030;2023-06-19T12:43:32;97749.25;;;27.89;74.33
68226;BME280;55045;49.410;11.030;2023-06-19T12:46:35;97755.13;;;28.05;74.89
68226;BME280;55045;49.410;11.030;2023-06-19T12:49:39;97734.56;;;27.50;76.04
68226;BME280;55045;49.410;11.030;2023-06-19T12:52:42;97741.41;;;27.80;75.52
68226;BME280;55045;49.410;11.030;2023-06-19T12:55:47;97749.94;;;27.54;74.91
68226;BME280;55045;49.410;11.030;2023-06-19T12:59:03;97752.94;;;27.45;74.17
68226;BME280;55045;49.410;11.030;2023-06-19T13:02:07;97750.97;;;27.53;75.94
68226;BME280;55045;49.410;11.030;2023-06-19T13:05:13;97749.53;;;27.51;75.23
68226;BME280;55045;49.410;11.030;2023-06-19T13:08:16;97741.41;;;27.80;76.60
68226;BME280;55045;49.410;11.030;2023-06-19T13:11:21;97742.56;;;27.99;74.76
68226;BME280;55045;49.410;11.030;2023-06-19T13:14:24;97736.06;;;28.30;77.35
68226;BME280;55045;49.410;11.030;2023-06-19T13:17:28;97738.22;;;28.82;75.69
68226;BME280;55045;49.410;11.030;2023-06-19T13:20:33;97741.03;;;28.74;73.86
68226;BME280;55045;49.410;11.030;2023-06-19T13:23:36;97737.75;;;28.37;76.87
68226;BME280;55045;49.410;11.030;2023-06-19T13:26:41;97741.84;;;28.33;78.37
68226;BME280;55045;49.410;11.030;2023-06-19T13:29:44;97745.06;;;28.29;77.09
68226;BME280;55045;49.410;11.030;2023-06-19T13:32:48;97733.47;;;27.87;78.46
68226;BME280;55045;49.410;11.030;2023-06-19T13:35:51;97743.41;;;28.56;76.38
68226;BME280;55045;49.410;11.030;2023-06-19T13:38:55;97735.13;;;29.33;72.68
68226;BME280;55045;49.410;11.030;2023-06-19T13:42:00;97735.00;;;28.59;74.08
68226;BME280;55045;49.410;11.030;2023-06-19T13:45:04;97733.88;;;28.81;71.32
68226;BME280;55045;49.410;11.030;2023-06-19T13:48:08;97728.25;;;29.11;70.72
68226;BME280;55045;49.410;11.030;2023-06-19T13:51:11;97725.72;;;28.89;70.55
68226;BME280;55045;49.410;11.030;2023-06-19T13:54:14;97721.25;;;28.55;71.56
68226;BME280;55045;49.410;11.030;2023-06-19T13:57:19;97727.53;;;28.82;72.27
68226;BME280;55045;49.410;11.030;2023-06-19T14:00:22;97721.44;;;28.60;71.36
68226;BME280;55045;49.410;11.030;2023-06-19T14:03:26;97717.97;;;27.97;78.82
68226;BME280;55045;49.410;11.030;2023-06-19T14:06:29;97718.88;;;28.32;76.92
68226;BME280;55045;49.410;11.030;2023-06-19T14:09:32;97719.53;;;28.13;77.66
68226;BME280;55045;49.410;11.030;2023-06-19T14:12:37;97723.22;;;28.12;75.86
68226;BME280;55045;49.410;11.030;2023-06-19T14:15:40;97708.22;;;27.83;76.39
68226;BME280;55045;49.410;11.030;2023-06-19T14:18:44;97707.06;;;27.07;80.03
68226;BME280;55045;49.410;11.030;2023-06-19T14:21:47;97709.41;;;27.16;80.68
68226;BME280;55045;49.410;11.030;2023-06-19T14:24:50;97720.03;;;26.65;82.71
68226;BME280;55045;49.410;11.030;2023-06-19T14:27:57;97716.03;;;26.40;83.07
68226;BME280;55045;49.410;11.030;2023-06-19T14:31:00;97735.59;;;26.09;85.89
68226;BME280;55045;49.410;11.030;2023-06-19T14:34:03;97724.28;;;25.78;88.65
68226;BME280;55045;49.410;11.030;2023-06-19T14:37:07;97715.94;;;25.81;91.44
68226;BME280;55045;49.410;11.030;2023-06-19T14:40:10;97728.75;;;25.77;94.84
68226;BME280;55045;49.410;11.030;2023-06-19T14:43:15;97725.94;;;25.94;94.09
68226;BME280;55045;49.410;11.030;2023-06-19T14:46:18;97735.53;;;25.80;92.70
68226;BME280;55045;49.410;11.030;2023-06-19T14:49:39;97741.63;;;25.66;97.61
68226;BME280;55045;49.410;11.030;2023-06-19T14:52:42;97761.66;;;24.11;100.00
68226;BME280;55045;49.410;11.030;2023-06-19T14:55:46;97782.53;;;22.99;100.00
68226;BME280;55045;49.410;11.030;2023-06-19T14:58:50;97812.16;;;22.25;100.00
68226;BME280;55045;49.410;11.030;2023-06-19T15:01:54;97817.47;;;21.36;100.00
68226;BME280;55045;49.410;11.030;2023-06-19T15:04:57;97820.66;;;21.57;100.00
68226;BME280;55045;49.410;11.030;2023-06-19T15:08:08;97819.47;;;21.14;100.00
68226;BME280;55045;49.410;11.030;2023-06-19T15:11:12;97812.13;;;21.18;100.00
68226;BME280;55045;49.410;11.030;2023-06-19T15:14:17;97828.63;;;21.20;100.00
68226;BME280;55045;49.410;11.030;2023-06-19T15:17:21;97836.09;;;20.97;100.00
68226;BME280;55045;49.410;11.030;2023-06-19T15:20:24;97835.94;;;21.36;100.00
68226;BME280;55045;49.410;11.030;2023-06-19T15:23:28;97826.66;;;21.22;100.00
68226;BME280;55045;49.410;11.030;2023-06-19T15:26:31;97812.38;;;21.15;100.00
68226;BME280;55045;49.410;11.030;2023-06-19T15:29:36;97807.88;;;21.07;100.00
68226;BME280;55045;49.410;11.030;2023-06-19T15:34:14;97814.06;;;20.88;100.00
68226;BME280;55045;49.410;11.030;2023-06-19T15:37:17;97815.72;;;20.89;100.00
68226;BME280;55045;49.410;11.030;2023-06-19T15:40:20;97817.94;;;20.57;100.00
68226;BME280;55045;49.410;11.030;2023-06-19T15:43:24;97819.91;;;20.55;100.00
68226;BME280;55045;49.410;11.030;2023-06-19T15:46:30;97807.41;;;20.57;100.00
68226;BME280;55045;49.410;11.030;2023-06-19T15:49:35;97797.03;;;20.46;100.00
68226;BME280;55045;49.410;11.030;2023-06-19T15:52:39;97791.25;;;20.69;100.00
68226;BME280;55045;49.410;11.030;2023-06-19T15:55:42;97785.69;;;21.00;100.00
68226;BME280;55045;49.410;11.030;2023-06-19T15:58:45;97776.81;;;21.28;100.00
68226;BME280;55045;49.410;11.030;2023-06-19T16:01:49;97759.72;;;21.68;100.00
68226;BME280;55045;49.410;11.030;2023-06-19T16:04:53;97764.09;;;22.03;100.00
68226;BME280;55045;49.410;11.030;2023-06-19T16:07:57;97756.78;;;22.41;100.00
68226;BME280;55045;49.410;11.030;2023-06-19T16:11:00;97726.19;;;23.15;100.00